sensor_id;sensor_type;location;lat;lon;timestamp;pressure;altitude;pressure_sealevel;temperature;humidity
50867;BME280;36839;51.946;21.002;2023-03-23T00:01:33;99490.01;;;6.14;100.00
50867;BME280;36839;51.946;21.002;2023-03-23T00:04:04;99486.70;;;6.13;100.00
50867;BME280;36839;51.946;21.002;2023-03-23T00:06:34;99487.14;;;6.12;100.00
50867;BME280;36839;51.946;21.002;2023-03-23T00:09:14;99489.67;;;6.13;100.00
50867;BME280;36839;51.946;21.002;2023-03-23T00:11:43;99485.90;;;6.15;100.00
50867;BME280;36839;51.946;21.002;2023-03-23T00:14:14;99486.48;;;6.17;100.00
50867;BME280;36839;51.946;21.002;2023-03-23T00:16:41;99479.42;;;6.18;100.00
50867;BME280;36839;51.946;21.002;2023-03-23T00:19:13;99476.73;;;6.18;100.00
50867;BME280;36839;51.946;21.002;2023-03-23T00:21:43;99477.76;;;6.16;100.00
50867;BME280;36839;51.946;21.002;2023-03-23T00:24:15;99477.89;;;6.14;100.00
50867;BME280;36839;51.946;21.002;2023-03-23T00:26:46;99477.48;;;6.11;100.00
50867;BME280;36839;51.946;21.002;2023-03-23T00:29:21;99477.67;;;6.08;100.00
50867;BME280;36839;51.946;21.002;2023-03-23T00:31:50;99471.27;;;6.04;100.00
50867;BME280;36839;51.946;21.002;2023-03-23T00:34:20;99470.64;;;6.01;100.00
50867;BME280;36839;51.946;21.002;2023-03-23T00:37:14;99466.96;;;5.99;100.00
50867;BME280;36839;51.946;21.002;2023-03-23T00:39:44;99467.19;;;5.96;100.00
50867;BME280;36839;51.946;21.002;2023-03-23T00:42:14;99465.98;;;5.96;100.00
50867;BME280;36839;51.946;21.002;2023-03-23T00:44:45;99462.84;;;5.94;100.00
50867;BME280;36839;51.946;21.002;2023-03-23T00:47:15;99462.02;;;5.93;100.00
50867;BME280;36839;51.946;21.002;2023-03-23T00:49:44;99457.73;;;5.93;100.00
50867;BME280;36839;51.946;21.002;2023-03-23T00:52:11;99453.88;;;5.92;100.00
50867;BME280;36839;51.946;21.002;2023-03-23T00:54:42;99453.39;;;5.91;100.00
50867;BME280;36839;51.946;21.002;2023-03-23T00:57:12;99456.18;;;5.92;100.00
50867;BME280;36839;51.946;21.002;2023-03-23T00:59:41;99450.82;;;5.93;100.00
50867;BME280;36839;51.946;21.002;2023-03-23T01:02:08;99451.00;;;5.94;100.00
50867;BME280;36839;51.946;21.002;2023-03-23T01:04:38;99446.46;;;5.96;100.00
50867;BME280;36839;51.946;21.002;2023-03-23T01:07:06;99443.27;;;5.98;100.00
50867;BME280;36839;51.946;21.002;2023-03-23T01:09:35;99440.27;;;6.00;100.00
50867;BME280;36839;51.946;21.002;2023-03-23T01:12:03;99438.24;;;6.01;100.00
50867;BME280;36839;51.946;21.002;2023-03-23T01:14:33;99437.92;;;6.02;100.00
50867;BME280;36839;51.946;21.002;2023-03-23T01:17:00;99440.02;;;6.05;100.00
50867;BME280;36839;51.946;21.002;2023-03-23T01:19:27;99436.81;;;6.06;100.00
50867;BME280;36839;51.946;21.002;2023-03-23T01:21:54;99437.82;;;6.08;100.00
50867;BME280;36839;51.946;21.002;2023-03-23T01:24:22;99436.41;;;6.09;100.00
50867;BME280;36839;51.946;21.002;2023-03-23T01:26:49;99436.14;;;6.10;100.00
50867;BME280;36839;51.946;21.002;2023-03-23T01:29:30;99440.87;;;6.12;100.00
50867;BME280;36839;51.946;21.002;2023-03-23T01:31:58;99440.34;;;6.16;100.00
50867;BME280;36839;51.946;21.002;2023-03-23T01:34:27;99442.67;;;6.17;100.00
50867;BME280;36839;51.946;21.002;2023-03-23T01:36:58;99444.66;;;6.18;100.00
50867;BME280;36839;51.946;21.002;2023-03-23T01:39:31;99443.69;;;6.20;100.00
50867;BME280;36839;51.946;21.002;2023-03-23T01:41:58;99444.64;;;6.22;100.00
50867;BME280;36839;51.946;21.002;2023-03-23T01:47:00;99446.46;;;6.24;100.00
50867;BME280;36839;51.946;21.002;2023-03-23T01:49:31;99444.20;;;6.27;100.00
50867;BME280;36839;51.946;21.002;2023-03-23T01:52:05;99444.52;;;6.27;100.00
50867;BME280;36839;51.946;21.002;2023-03-23T01:54:39;99443.32;;;6.28;100.00
50867;BME280;36839;51.946;21.002;2023-03-23T01:57:13;99445.94;;;6.26;100.00
50867;BME280;36839;51.946;21.002;2023-03-23T01:59:43;99444.50;;;6.25;100.00
50867;BME280;36839;51.946;21.002;2023-03-23T02:02:15;99437.25;;;6.25;100.00
50867;BME280;36839;51.946;21.002;2023-03-23T02:04:45;99435.00;;;6.25;100.00
50867;BME280;36839;51.946;21.002;2023-03-23T02:07:14;99433.66;;;6.23;100.00
50867;BME280;36839;51.946;21.002;2023-03-23T02:09:42;99432.02;;;6.21;100.00
50867;BME280;36839;51.946;21.002;2023-03-23T02:12:09;99426.84;;;6.19;100.00
50867;BME280;36839;51.946;21.002;2023-03-23T02:14:36;99429.49;;;6.16;100.00
50867;BME280;36839;51.946;21.002;2023-03-23T02:20:45;99422.48;;;6.09;100.00
50867;BME280;36839;51.946;21.002;2023-03-23T02:23:36;99420.73;;;6.04;100.00
50867;BME280;36839;51.946;21.002;2023-03-23T02:34:09;99422.08;;;6.01;100.00
50867;BME280;36839;51.946;21.002;2023-03-23T02:37:11;99415.29;;;6.05;100.00
50867;BME280;36839;51.946;21.002;2023-03-23T02:39:49;99416.15;;;6.06;100.00
50867;BME280;36839;51.946;21.002;2023-03-23T02:42:26;99408.38;;;6.08;100.00
50867;BME280;36839;51.946;21.002;2023-03-23T02:44:56;99405.60;;;6.09;100.00
50867;BME280;36839;51.946;21.002;2023-03-23T02:47:27;99408.46;;;6.13;100.00
50867;BME280;36839;51.946;21.002;2023-03-23T02:49:59;99408.36;;;6.14;100.00
50867;BME280;36839;51.946;21.002;2023-03-23T02:52:29;99410.34;;;6.15;100.00
50867;BME280;36839;51.946;21.002;2023-03-23T02:55:02;99412.59;;;6.18;100.00
50867;BME280;36839;51.946;21.002;2023-03-23T02:57:38;99407.81;;;6.26;100.00
50867;BME280;36839;51.946;21.002;2023-03-23T03:00:16;99410.73;;;6.35;100.00
50867;BME280;36839;51.946;21.002;2023-03-23T03:02:53;99413.92;;;6.43;100.00
50867;BME280;36839;51.946;21.002;2023-03-23T03:09:00;99409.08;;;6.55;100.00
50867;BME280;36839;51.946;21.002;2023-03-23T03:11:31;99407.56;;;6.62;100.00
50867;BME280;36839;51.946;21.002;2023-03-23T03:14:31;99399.02;;;6.62;100.00
50867;BME280;36839;51.946;21.002;2023-03-23T03:17:20;99402.98;;;6.64;100.00
50867;BME280;36839;51.946;21.002;2023-03-23T03:19:49;99400.81;;;6.68;100.00
50867;BME280;36839;51.946;21.002;2023-03-23T03:22:18;99402.10;;;6.72;100.00
50867;BME280;36839;51.946;21.002;2023-03-23T03:24:49;99404.44;;;6.77;100.00
50867;BME280;36839;51.946;21.002;2023-03-23T03:27:17;99401.70;;;6.79;100.00
50867;BME280;36839;51.946;21.002;2023-03-23T03:29:55;99397.55;;;6.81;100.00
50867;BME280;36839;51.946;21.002;2023-03-23T03:32:31;99398.56;;;6.84;100.00
50867;BME280;36839;51.946;21.002;2023-03-23T03:35:03;99397.35;;;6.89;100.00
50867;BME280;36839;51.946;21.002;2023-03-23T03:37:37;99398.05;;;6.94;100.00
50867;BME280;36839;51.946;21.002;2023-03-23T03:40:09;99403.06;;;6.95;100.00
50867;BME280;36839;51.946;21.002;2023-03-23T03:42:38;99402.80;;;6.95;100.00
50867;BME280;36839;51.946;21.002;2023-03-23T03:45:14;99409.83;;;6.99;100.00
50867;BME280;36839;51.946;21.002;2023-03-23T03:47:45;99411.42;;;6.99;100.00
50867;BME280;36839;51.946;21.002;2023-03-23T03:50:17;99416.18;;;7.05;100.00
50867;BME280;36839;51.946;21.002;2023-03-23T03:52:44;99416.52;;;7.09;100.00
50867;BME280;36839;51.946;21.002;2023-03-23T03:55:11;99417.61;;;7.09;100.00
50867;BME280;36839;51.946;21.002;2023-03-23T03:57:48;99419.48;;;7.06;100.00
50867;BME280;36839;51.946;21.002;2023-03-23T04:00:20;99419.25;;;7.04;100.00
50867;BME280;36839;51.946;21.002;2023-03-23T04:02:49;99417.38;;;7.04;100.00
50867;BME280;36839;51.946;21.002;2023-03-23T04:05:23;99420.63;;;7.06;100.00
50867;BME280;36839;51.946;21.002;2023-03-23T04:07:53;99414.92;;;7.07;100.00
50867;BME280;36839;51.946;21.002;2023-03-23T04:10:20;99407.65;;;7.02;100.00
50867;BME280;36839;51.946;21.002;2023-03-23T04:12:53;99399.14;;;6.93;100.00
50867;BME280;36839;51.946;21.002;2023-03-23T04:15:20;99397.12;;;6.83;100.00
50867;BME280;36839;51.946;21.002;2023-03-23T04:17:47;99392.77;;;6.73;100.00
50867;BME280;36839;51.946;21.002;2023-03-23T04:20:14;99396.61;;;6.63;100.00
50867;BME280;36839;51.946;21.002;2023-03-23T04:22:45;99393.44;;;6.55;100.00
50867;BME280;36839;51.946;21.002;2023-03-23T04:25:18;99395.15;;;6.49;100.00
50867;BME280;36839;51.946;21.002;2023-03-23T04:27:51;99392.70;;;6.45;100.00
50867;BME280;36839;51.946;21.002;2023-03-23T04:30:21;99392.73;;;6.41;100.00
50867;BME280;36839;51.946;21.002;2023-03-23T04:32:51;99395.02;;;6.39;100.00
50867;BME280;36839;51.946;21.002;2023-03-23T04:35:23;99395.62;;;6.38;100.00
50867;BME280;36839;51.946;21.002;2023-03-23T04:37:53;99394.14;;;6.32;100.00
50867;BME280;36839;51.946;21.002;2023-03-23T04:40:22;99394.48;;;6.26;100.00
50867;BME280;36839;51.946;21.002;2023-03-23T04:42:49;99392.42;;;6.17;100.00
50867;BME280;36839;51.946;21.002;2023-03-23T04:45:27;99393.27;;;6.10;100.00
50867;BME280;36839;51.946;21.002;2023-03-23T04:47:55;99396.70;;;6.03;100.00
50867;BME280;36839;51.946;21.002;2023-03-23T04:50:28;99388.97;;;5.96;100.00
50867;BME280;36839;51.946;21.002;2023-03-23T04:53:00;99387.40;;;5.93;100.00
50867;BME280;36839;51.946;21.002;2023-03-23T04:55:33;99389.20;;;5.91;100.00
50867;BME280;36839;51.946;21.002;2023-03-23T04:58:05;99392.17;;;5.92;100.00
50867;BME280;36839;51.946;21.002;2023-03-23T05:00:34;99388.33;;;5.93;100.00
50867;BME280;36839;51.946;21.002;2023-03-23T05:03:03;99386.27;;;5.95;100.00
50867;BME280;36839;51.946;21.002;2023-03-23T05:05:31;99384.27;;;5.98;100.00
50867;BME280;36839;51.946;21.002;2023-03-23T05:08:02;99380.90;;;6.01;100.00
50867;BME280;36839;51.946;21.002;2023-03-23T05:10:33;99376.15;;;6.04;100.00
50867;BME280;36839;51.946;21.002;2023-03-23T05:12:59;99385.36;;;6.10;100.00
50867;BME280;36839;51.946;21.002;2023-03-23T05:15:29;99388.30;;;6.20;100.00
50867;BME280;36839;51.946;21.002;2023-03-23T05:17:56;99391.83;;;6.31;100.00
50867;BME280;36839;51.946;21.002;2023-03-23T05:20:27;99387.36;;;6.41;100.00
50867;BME280;36839;51.946;21.002;2023-03-23T05:22:58;99387.63;;;6.50;100.00
50867;BME280;36839;51.946;21.002;2023-03-23T05:25:27;99393.34;;;6.57;100.00
50867;BME280;36839;51.946;21.002;2023-03-23T05:27:54;99391.52;;;6.64;100.00
50867;BME280;36839;51.946;21.002;2023-03-23T05:30:22;99394.18;;;6.70;100.00
50867;BME280;36839;51.946;21.002;2023-03-23T05:32:54;99397.20;;;6.78;100.00
50867;BME280;36839;51.946;21.002;2023-03-23T05:35:23;99395.66;;;6.88;100.00
50867;BME280;36839;51.946;21.002;2023-03-23T05:37:53;99390.99;;;6.99;100.00
50867;BME280;36839;51.946;21.002;2023-03-23T05:40:20;99384.94;;;7.08;100.00
50867;BME280;36839;51.946;21.002;2023-03-23T05:42:47;99388.33;;;7.17;100.00
50867;BME280;36839;51.946;21.002;2023-03-23T05:45:17;99396.06;;;7.28;100.00
50867;BME280;36839;51.946;21.002;2023-03-23T05:47:48;99400.84;;;7.40;100.00
50867;BME280;36839;51.946;21.002;2023-03-23T05:50:15;99405.16;;;7.55;100.00
50867;BME280;36839;51.946;21.002;2023-03-23T05:52:45;99404.98;;;7.70;100.00
50867;BME280;36839;51.946;21.002;2023-03-23T05:55:13;99404.46;;;7.82;100.00
50867;BME280;36839;51.946;21.002;2023-03-23T05:57:42;99397.77;;;7.93;100.00
50867;BME280;36839;51.946;21.002;2023-03-23T06:00:10;99399.15;;;8.03;100.00
50867;BME280;36839;51.946;21.002;2023-03-23T06:02:41;99403.67;;;8.13;100.00
50867;BME280;36839;51.946;21.002;2023-03-23T06:05:13;99399.28;;;8.22;100.00
50867;BME280;36839;51.946;21.002;2023-03-23T06:07:40;99400.27;;;8.30;100.00
50867;BME280;36839;51.946;21.002;2023-03-23T06:10:09;99399.58;;;8.41;100.00
50867;BME280;36839;51.946;21.002;2023-03-23T06:12:40;99393.63;;;8.48;100.00
50867;BME280;36839;51.946;21.002;2023-03-23T06:15:13;99388.60;;;8.57;100.00
50867;BME280;36839;51.946;21.002;2023-03-23T06:18:59;99390.34;;;8.74;100.00
50867;BME280;36839;51.946;21.002;2023-03-23T06:21:28;99393.79;;;8.83;100.00
50867;BME280;36839;51.946;21.002;2023-03-23T06:23:54;99392.95;;;8.91;100.00
50867;BME280;36839;51.946;21.002;2023-03-23T06:26:27;99391.77;;;8.98;100.00
50867;BME280;36839;51.946;21.002;2023-03-23T06:28:55;99391.02;;;9.05;100.00
50867;BME280;36839;51.946;21.002;2023-03-23T06:31:23;99393.59;;;9.12;100.00
50867;BME280;36839;51.946;21.002;2023-03-23T06:33:51;99390.49;;;9.17;100.00
50867;BME280;36839;51.946;21.002;2023-03-23T06:36:18;99393.22;;;9.22;100.00
50867;BME280;36839;51.946;21.002;2023-03-23T06:38:46;99394.52;;;9.27;100.00
50867;BME280;36839;51.946;21.002;2023-03-23T06:41:13;99396.50;;;9.32;100.00
50867;BME280;36839;51.946;21.002;2023-03-23T06:43:40;99395.91;;;9.38;100.00
50867;BME280;36839;51.946;21.002;2023-03-23T06:46:06;99396.88;;;9.43;100.00
50867;BME280;36839;51.946;21.002;2023-03-23T06:48:33;99398.45;;;9.51;100.00
50867;BME280;36839;51.946;21.002;2023-03-23T06:51:00;99401.09;;;9.59;100.00
50867;BME280;36839;51.946;21.002;2023-03-23T06:53:26;99404.85;;;9.68;100.00
50867;BME280;36839;51.946;21.002;2023-03-23T06:55:53;99404.02;;;9.77;100.00
50867;BME280;36839;51.946;21.002;2023-03-23T06:58:19;99409.98;;;9.86;100.00
50867;BME280;36839;51.946;21.002;2023-03-23T07:00:47;99405.58;;;9.93;100.00
50867;BME280;36839;51.946;21.002;2023-03-23T07:03:15;99397.95;;;10.04;100.00
50867;BME280;36839;51.946;21.002;2023-03-23T07:05:41;99399.86;;;10.15;100.00
50867;BME280;36839;51.946;21.002;2023-03-23T07:08:08;99400.71;;;10.27;100.00
50867;BME280;36839;51.946;21.002;2023-03-23T07:10:35;99403.28;;;10.40;100.00
50867;BME280;36839;51.946;21.002;2023-03-23T07:13:01;99404.48;;;10.53;100.00
50867;BME280;36839;51.946;21.002;2023-03-23T07:15:29;99404.17;;;10.63;100.00
50867;BME280;36839;51.946;21.002;2023-03-23T07:17:55;99404.14;;;10.72;100.00
50867;BME280;36839;51.946;21.002;2023-03-23T07:20:23;99401.19;;;10.80;100.00
50867;BME280;36839;51.946;21.002;2023-03-23T07:22:49;99397.58;;;10.87;100.00
50867;BME280;36839;51.946;21.002;2023-03-23T07:25:17;99400.18;;;10.97;100.00
50867;BME280;36839;51.946;21.002;2023-03-23T07:27:46;99393.92;;;11.08;100.00
50867;BME280;36839;51.946;21.002;2023-03-23T07:30:14;99391.84;;;11.20;100.00
50867;BME280;36839;51.946;21.002;2023-03-23T07:32:42;99395.83;;;11.34;100.00
50867;BME280;36839;51.946;21.002;2023-03-23T07:35:11;99391.77;;;11.44;100.00
50867;BME280;36839;51.946;21.002;2023-03-23T07:37:38;99392.31;;;11.53;100.00
50867;BME280;36839;51.946;21.002;2023-03-23T07:40:06;99389.02;;;11.64;100.00
50867;BME280;36839;51.946;21.002;2023-03-23T07:42:43;99386.40;;;11.69;100.00
50867;BME280;36839;51.946;21.002;2023-03-23T07:45:13;99389.99;;;11.72;100.00
50867;BME280;36839;51.946;21.002;2023-03-23T07:47:41;99390.59;;;11.79;100.00
50867;BME280;36839;51.946;21.002;2023-03-23T07:50:09;99398.23;;;11.88;100.00
50867;BME280;36839;51.946;21.002;2023-03-23T07:52:37;99394.35;;;11.95;100.00
50867;BME280;36839;51.946;21.002;2023-03-23T07:55:06;99393.59;;;12.12;100.00
50867;BME280;36839;51.946;21.002;2023-03-23T07:57:34;99398.20;;;12.29;100.00
50867;BME280;36839;51.946;21.002;2023-03-23T08:00:02;99395.10;;;12.38;100.00
50867;BME280;36839;51.946;21.002;2023-03-23T08:02:41;99396.92;;;12.38;100.00
50867;BME280;36839;51.946;21.002;2023-03-23T08:05:08;99402.05;;;12.41;100.00
50867;BME280;36839;51.946;21.002;2023-03-23T08:07:37;99396.30;;;12.47;100.00
50867;BME280;36839;51.946;21.002;2023-03-23T08:10:05;99401.23;;;12.66;100.00
50867;BME280;36839;51.946;21.002;2023-03-23T08:12:33;99395.23;;;12.81;100.00
50867;BME280;36839;51.946;21.002;2023-03-23T08:15:00;99392.25;;;12.87;100.00
50867;BME280;36839;51.946;21.002;2023-03-23T08:17:26;99396.54;;;12.95;100.00
50867;BME280;36839;51.946;21.002;2023-03-23T08:19:53;99394.61;;;13.03;100.00
50867;BME280;36839;51.946;21.002;2023-03-23T08:22:20;99389.27;;;13.10;100.00
50867;BME280;36839;51.946;21.002;2023-03-23T08:24:48;99376.35;;;13.20;100.00
50867;BME280;36839;51.946;21.002;2023-03-23T08:27:15;99370.88;;;13.29;100.00
50867;BME280;36839;51.946;21.002;2023-03-23T08:29:46;99372.50;;;13.39;100.00
50867;BME280;36839;51.946;21.002;2023-03-23T08:32:18;99373.19;;;13.49;100.00
50867;BME280;36839;51.946;21.002;2023-03-23T08:34:44;99376.97;;;13.61;100.00
50867;BME280;36839;51.946;21.002;2023-03-23T08:37:13;99372.40;;;13.70;100.00
50867;BME280;36839;51.946;21.002;2023-03-23T08:39:40;99372.27;;;13.81;100.00
50867;BME280;36839;51.946;21.002;2023-03-23T08:42:15;99372.53;;;13.91;100.00
50867;BME280;36839;51.946;21.002;2023-03-23T08:44:46;99372.02;;;13.99;100.00
50867;BME280;36839;51.946;21.002;2023-03-23T08:47:14;99367.14;;;14.12;100.00
50867;BME280;36839;51.946;21.002;2023-03-23T08:49:43;99362.84;;;14.26;100.00
50867;BME280;36839;51.946;21.002;2023-03-23T08:52:11;99361.92;;;14.39;100.00
50867;BME280;36839;51.946;21.002;2023-03-23T08:54:37;99359.09;;;14.46;99.96
50867;BME280;36839;51.946;21.002;2023-03-23T08:57:04;99357.76;;;14.57;99.96
50867;BME280;36839;51.946;21.002;2023-03-23T08:59:33;99362.45;;;14.67;99.01
50867;BME280;36839;51.946;21.002;2023-03-23T09:02:02;99365.76;;;14.78;98.31
50867;BME280;36839;51.946;21.002;2023-03-23T09:04:35;99360.97;;;14.91;97.90
50867;BME280;36839;51.946;21.002;2023-03-23T09:07:10;99357.78;;;14.95;94.03
50867;BME280;36839;51.946;21.002;2023-03-23T09:09:39;99353.02;;;15.05;95.45
50867;BME280;36839;51.946;21.002;2023-03-23T09:12:07;99346.73;;;15.10;93.45
50867;BME280;36839;51.946;21.002;2023-03-23T09:14:39;99341.90;;;15.14;91.93
50867;BME280;36839;51.946;21.002;2023-03-23T09:17:06;99350.36;;;15.20;92.77
50867;BME280;36839;51.946;21.002;2023-03-23T09:19:36;99356.09;;;15.24;93.43
50867;BME280;36839;51.946;21.002;2023-03-23T09:22:04;99363.23;;;15.17;91.07
50867;BME280;36839;51.946;21.002;2023-03-23T09:24:36;99362.89;;;15.11;92.05
50867;BME280;36839;51.946;21.002;2023-03-23T09:27:09;99362.27;;;15.05;92.95
50867;BME280;36839;51.946;21.002;2023-03-23T09:29:37;99363.64;;;15.01;93.66
50867;BME280;36839;51.946;21.002;2023-03-23T09:32:10;99359.05;;;14.96;93.94
50867;BME280;36839;51.946;21.002;2023-03-23T09:34:39;99364.41;;;14.93;94.58
50867;BME280;36839;51.946;21.002;2023-03-23T09:37:09;99363.71;;;14.88;94.02
50867;BME280;36839;51.946;21.002;2023-03-23T09:39:37;99363.59;;;14.84;93.20
50867;BME280;36839;51.946;21.002;2023-03-23T09:50:40;99344.56;;;15.17;93.56
50867;BME280;36839;51.946;21.002;2023-03-23T09:53:27;99341.51;;;15.26;92.05
50867;BME280;36839;51.946;21.002;2023-03-23T09:56:10;99337.58;;;15.36;90.53
50867;BME280;36839;51.946;21.002;2023-03-23T09:58:58;99337.02;;;15.46;89.50
50867;BME280;36839;51.946;21.002;2023-03-23T10:01:44;99333.11;;;15.58;89.42
50867;BME280;36839;51.946;21.002;2023-03-23T10:05:26;99330.20;;;15.71;88.87
50867;BME280;36839;51.946;21.002;2023-03-23T10:07:28;99330.94;;;15.92;87.95
50867;BME280;36839;51.946;21.002;2023-03-23T10:10:01;99327.33;;;16.09;87.36
50867;BME280;36839;51.946;21.002;2023-03-23T10:15:16;99323.09;;;16.37;83.07
50867;BME280;36839;51.946;21.002;2023-03-23T10:20:42;99312.54;;;16.56;76.26
50867;BME280;36839;51.946;21.002;2023-03-23T10:28:50;99301.52;;;16.65;71.38
50867;BME280;36839;51.946;21.002;2023-03-23T10:31:35;99304.66;;;16.72;70.53
50867;BME280;36839;51.946;21.002;2023-03-23T10:34:15;99301.66;;;16.77;70.03
50867;BME280;36839;51.946;21.002;2023-03-23T10:37:03;99300.31;;;16.85;71.56
50867;BME280;36839;51.946;21.002;2023-03-23T10:39:41;99298.64;;;16.96;71.21
50867;BME280;36839;51.946;21.002;2023-03-23T10:42:21;99298.45;;;17.17;72.34
50867;BME280;36839;51.946;21.002;2023-03-23T10:44:51;99301.02;;;17.31;69.93
50867;BME280;36839;51.946;21.002;2023-03-23T10:47:23;99301.32;;;17.34;68.40
50867;BME280;36839;51.946;21.002;2023-03-23T10:50:03;99305.16;;;17.28;66.80
50867;BME280;36839;51.946;21.002;2023-03-23T10:52:39;99301.52;;;17.10;64.46
50867;BME280;36839;51.946;21.002;2023-03-23T10:55:15;99290.54;;;17.14;67.61
50867;BME280;36839;51.946;21.002;2023-03-23T10:57:45;99287.75;;;17.24;64.99
50867;BME280;36839;51.946;21.002;2023-03-23T11:00:18;99288.17;;;17.36;62.60
50867;BME280;36839;51.946;21.002;2023-03-23T11:03:06;99282.14;;;17.49;59.96
50867;BME280;36839;51.946;21.002;2023-03-23T11:05:49;99283.73;;;17.80;60.43
50867;BME280;36839;51.946;21.002;2023-03-23T11:08:21;99276.60;;;18.09;57.12
50867;BME280;36839;51.946;21.002;2023-03-23T11:10:56;99273.52;;;18.23;56.48
50867;BME280;36839;51.946;21.002;2023-03-23T11:13:31;99272.59;;;18.40;57.43
50867;BME280;36839;51.946;21.002;2023-03-23T11:16:01;99271.71;;;18.47;56.13
50867;BME280;36839;51.946;21.002;2023-03-23T11:21:05;99266.63;;;18.27;53.14
50867;BME280;36839;51.946;21.002;2023-03-23T11:23:41;99262.61;;;18.29;55.26
50867;BME280;36839;51.946;21.002;2023-03-23T11:26:14;99254.76;;;18.37;54.16
50867;BME280;36839;51.946;21.002;2023-03-23T11:31:43;99250.48;;;18.38;51.61
50867;BME280;36839;51.946;21.002;2023-03-23T11:34:16;99249.15;;;18.16;50.60
50867;BME280;36839;51.946;21.002;2023-03-23T11:37:01;99244.81;;;18.09;51.62
50867;BME280;36839;51.946;21.002;2023-03-23T11:39:34;99248.15;;;18.24;53.32
50867;BME280;36839;51.946;21.002;2023-03-23T11:42:34;99247.70;;;18.39;53.05
50867;BME280;36839;51.946;21.002;2023-03-23T11:45:37;99242.31;;;18.37;52.14
50867;BME280;36839;51.946;21.002;2023-03-23T11:51:08;99232.52;;;18.66;52.40
50867;BME280;36839;51.946;21.002;2023-03-23T11:56:36;99238.46;;;18.78;50.69
50867;BME280;36839;51.946;21.002;2023-03-23T11:59:26;99235.21;;;18.78;50.27
50867;BME280;36839;51.946;21.002;2023-03-23T12:05:28;99230.34;;;19.16;50.82
50867;BME280;36839;51.946;21.002;2023-03-23T12:14:01;99219.89;;;19.17;48.88
50867;BME280;36839;51.946;21.002;2023-03-23T12:22:57;99201.23;;;19.39;49.03
50867;BME280;36839;51.946;21.002;2023-03-23T12:46:02;99193.85;;;19.18;48.59
50867;BME280;36839;51.946;21.002;2023-03-23T12:49:00;99181.52;;;18.97;48.21
50867;BME280;36839;51.946;21.002;2023-03-23T12:57:31;99177.73;;;19.04;49.24
50867;BME280;36839;51.946;21.002;2023-03-23T13:00:27;99180.11;;;19.11;49.40
50867;BME280;36839;51.946;21.002;2023-03-23T13:08:25;99179.61;;;18.95;49.34
50867;BME280;36839;51.946;21.002;2023-03-23T13:10:58;99175.05;;;19.07;49.32
50867;BME280;36839;51.946;21.002;2023-03-23T13:13:48;99174.40;;;19.12;49.33
50867;BME280;36839;51.946;21.002;2023-03-23T13:22:13;99175.99;;;18.97;49.57
50867;BME280;36839;51.946;21.002;2023-03-23T13:24:52;99173.12;;;18.70;49.41
50867;BME280;36839;51.946;21.002;2023-03-23T13:27:24;99168.02;;;18.63;51.21
50867;BME280;36839;51.946;21.002;2023-03-23T13:29:57;99171.52;;;18.54;50.91
50867;BME280;36839;51.946;21.002;2023-03-23T13:32:35;99176.30;;;18.46;50.15
50867;BME280;36839;51.946;21.002;2023-03-23T13:35:24;99176.66;;;18.35;49.26
50867;BME280;36839;51.946;21.002;2023-03-23T13:37:53;99180.61;;;18.29;49.00
50867;BME280;36839;51.946;21.002;2023-03-23T13:40:28;99177.54;;;18.28;48.48
50867;BME280;36839;51.946;21.002;2023-03-23T13:43:00;99180.44;;;18.36;48.38
50867;BME280;36839;51.946;21.002;2023-03-23T13:48:27;99175.14;;;18.66;47.76
50867;BME280;36839;51.946;21.002;2023-03-23T13:50:58;99176.73;;;18.59;47.51
50867;BME280;36839;51.946;21.002;2023-03-23T13:53:47;99175.46;;;18.47;48.96
50867;BME280;36839;51.946;21.002;2023-03-23T13:59:07;99165.58;;;18.31;49.91
50867;BME280;36839;51.946;21.002;2023-03-23T14:01:37;99165.19;;;18.19;50.42
50867;BME280;36839;51.946;21.002;2023-03-23T14:04:31;99167.66;;;18.08;50.56
50867;BME280;36839;51.946;21.002;2023-03-23T14:07:11;99175.33;;;18.01;50.98
50867;BME280;36839;51.946;21.002;2023-03-23T14:09:41;99170.38;;;17.99;51.64
50867;BME280;36839;51.946;21.002;2023-03-23T14:12:19;99176.22;;;17.90;52.54
50867;BME280;36839;51.946;21.002;2023-03-23T14:14:54;99173.81;;;17.74;52.62
50867;BME280;36839;51.946;21.002;2023-03-23T14:17:44;99179.16;;;17.64;53.05
50867;BME280;36839;51.946;21.002;2023-03-23T14:20:25;99181.13;;;17.53;53.50
50867;BME280;36839;51.946;21.002;2023-03-23T14:22:56;99190.33;;;17.50;54.25
50867;BME280;36839;51.946;21.002;2023-03-23T14:25:27;99188.12;;;17.44;54.83
50867;BME280;36839;51.946;21.002;2023-03-23T14:27:58;99194.57;;;17.37;55.04
50867;BME280;36839;51.946;21.002;2023-03-23T14:30:37;99195.08;;;17.27;55.25
50867;BME280;36839;51.946;21.002;2023-03-23T14:33:09;99200.35;;;17.20;55.64
50867;BME280;36839;51.946;21.002;2023-03-23T14:35:42;99205.77;;;17.14;56.24
50867;BME280;36839;51.946;21.002;2023-03-23T14:38:21;99203.98;;;17.07;56.00
50867;BME280;36839;51.946;21.002;2023-03-23T14:40:50;99211.38;;;17.00;56.41
50867;BME280;36839;51.946;21.002;2023-03-23T14:43:20;99217.48;;;16.96;56.84
50867;BME280;36839;51.946;21.002;2023-03-23T14:45:56;99219.48;;;16.88;56.78
50867;BME280;36839;51.946;21.002;2023-03-23T14:48:25;99220.59;;;16.83;56.33
50867;BME280;36839;51.946;21.002;2023-03-23T14:51:04;99221.39;;;16.74;56.19
50867;BME280;36839;51.946;21.002;2023-03-23T14:53:39;99221.84;;;16.64;56.15
50867;BME280;36839;51.946;21.002;2023-03-23T14:56:13;99222.09;;;16.57;56.57
50867;BME280;36839;51.946;21.002;2023-03-23T14:58:51;99229.23;;;16.54;56.99
50867;BME280;36839;51.946;21.002;2023-03-23T15:01:27;99220.39;;;16.52;57.32
50867;BME280;36839;51.946;21.002;2023-03-23T15:04:05;99221.93;;;16.48;58.02